Classifiche di sempre
Migliori tempi personali validi di atleta tra tutti gli eventi e le stagioni. Ogni atleta compare una sola volta per divisione.
Cerca per nome e apri la pagina in cui è classificato questo record di divisione.
178,209 atleti in classifica
| Pos. | Pos. AG | Atleta | Nazionalità | Categoria età | TempoMiglior tempo | Distacco |
|---|---|---|---|---|---|---|
| 151101 | #12054 | Bernhard BijmaNED · M 45-49 · AG #12054 | NED | M 45-49 | 1:49:45 | +59:07 |
| 151102 | #33361 | Maxime MonauxBEL · M 35-39 · AG #33361 | BEL | M 35-39 | 1:49:45 | +59:07 |
| 151103 | #40325 | Fabian-Thomas BayerGER · M 30-34 · AG #40325 | GER | M 30-34 | 1:49:45 | +59:07 |
| 151104 | #33362 | Gareth TONESGBR · M 35-39 · AG #33362 | GBR | M 35-39 | 1:49:45 | +59:07 |
| 151105 | #12055 | Michael RosartBEL · M 45-49 · AG #12055 | BEL | M 45-49 | 1:49:45 | +59:07 |
| 151106 | #33363 | Fredrik Mac LeodSWE · M 35-39 · AG #33363 | SWE | M 35-39 | 1:49:45 | +59:07 |
| 151107 | #15575 | Michiel ColsteeNED · M 16-24 · AG #15575 | NED | M 16-24 | 1:49:45 | +59:07 |
| 151108 | #15576 | Max Rümelin Max RümelinGER · M 16-24 · AG #15576 | GER | M 16-24 | 1:49:45 | +59:07 |
| 151109 | #33364 | Anthony MaherIRL · M 35-39 · AG #33364 | IRL | M 35-39 | 1:49:45 | +59:07 |
| 151110 | #15574 | Andy DominguezDOM · M 16-24 · AG #15574 | DOM | M 16-24 | 1:49:45 | +59:07 |
| 151111 | #32445 | Esli MetekohyNED · M 25-29 · AG #32445 | NED | M 25-29 | 1:49:45 | +59:07 |
| 151112 | #12056 | Jarno KosterNED · M 45-49 · AG #12056 | NED | M 45-49 | 1:49:45 | +59:07 |
| 151113 | #40326 | Marcin SyposzPOL · M 30-34 · AG #40326 | POL | M 30-34 | 1:49:45 | +59:07 |
| 151114 | #33365 | Lars KriegerGER · M 35-39 · AG #33365 | GER | M 35-39 | 1:49:45 | +59:07 |
| 151115 | #33366 | Tony MellusoFRA · M 35-39 · AG #33366 | FRA | M 35-39 | 1:49:45 | +59:07 |
| 151116 | #40327 | 言樵 陳TPE · M 30-34 · AG #40327 | TPE | M 30-34 | 1:49:45 | +59:07 |
| 151117 | #21801 | SHOU JHEN JIAOHYR · M 40-44 · AG #21801 | HYR | M 40-44 | 1:49:45 | +59:07 |
| 151118 | #32446 | Stefano SalinasMEX · M 25-29 · AG #32446 | MEX | M 25-29 | 1:49:45 | +59:07 |
| 151119 | #32447 | 天伦 寇CHN · M 25-29 · AG #32447 | CHN | M 25-29 | 1:49:45 | +59:07 |
| 151120 | #12057 | Fabrizio AmiciziaITA · M 45-49 · AG #12057 | ITA | M 45-49 | 1:49:45 | +59:07 |
| 151121 | #12058 | Shaun RoweRSA · M 45-49 · AG #12058 | RSA | M 45-49 | 1:49:45 | +59:07 |
| 151122 | #2588 | David OramGBR · M 55-59 · AG #2588 | GBR | M 55-59 | 1:49:45 | +59:07 |
| 151123 | #32448 | Dominik KliggeGER · M 25-29 · AG #32448 | GER | M 25-29 | 1:49:45 | +59:07 |
| 151124 | #32449 | Diego Humberto Aguirre GalvanMEX · M 25-29 · AG #32449 | MEX | M 25-29 | 1:49:45 | +59:07 |
| 151125 | #12059 | Marco MarcoionniITA · M 45-49 · AG #12059 | ITA | M 45-49 | 1:49:46 | +59:08 |
Pagina 6,045 di 7,129